Time;durP1;ratioP1;P1;durP2;ratioP2;P2;SDS_P1;SDS_P2;PMS_P1;PMS_P2;Temp;Humidity;BMP_temperature;BMP_pressure;BME280_temperature;BME280_humidity;BME280_pressure;Samples;Min_cycle;Max_cycle;Signal;HPM_P1;HPM_P2
2023/10/21 00:02:12;;;;;;;12.75;5.25;;;;;;;16.73;78.94;98336.53;5031668;28;20083;-44
2023/10/21 00:04:38;;;;;;;11.10;4.82;;;;;;;16.73;79.14;98338.31;5031616;28;20029;-45
2023/10/21 00:07:03;;;;;;;12.18;5.32;;;;;;;16.56;79.54;98350.53;5046554;22;20089;-73
2023/10/21 00:09:31;;;;;;;16.75;5.15;;;;;;;16.42;80.53;98347.75;5053183;28;20489;-73
2023/10/21 00:11:57;;;;;;;13.13;5.32;;;;;;;16.60;80.66;98349.47;5052610;28;20557;-73
2023/10/21 00:14:22;;;;;;;12.10;5.18;;;;;;;16.69;79.62;98348.16;5052910;28;20071;-75
2023/10/21 00:16:51;;;;;;;14.85;5.40;;;;;;;16.63;79.90;98348.47;5052145;28;20044;-73
2023/10/21 00:19:23;;;;;;;11.48;5.10;;;;;;;16.69;79.83;98348.16;5050802;28;20098;-73
2023/10/21 00:21:48;;;;;;;14.32;5.00;;;;;;;16.75;79.50;98353.13;5050403;28;20056;-73
2023/10/21 00:24:23;;;;;;;13.45;5.30;;;;;;;16.57;80.93;98354.88;5052486;28;20059;-73
2023/10/21 00:26:55;;;;;;;13.63;5.00;;;;;;;16.74;79.70;98364.56;5051937;28;20025;-73
2023/10/21 00:29:20;;;;;;;15.68;5.35;;;;;;;16.72;79.83;98365.56;5051132;28;20390;-73
2023/10/21 00:31:51;;;;;;;13.77;5.30;;;;;;;16.72;79.75;98353.25;5051358;28;20032;-73
2023/10/21 00:34:22;;;;;;;13.20;5.47;;;;;;;16.69;80.71;98360.47;5052058;28;20033;-73
2023/10/21 00:36:48;;;;;;;14.70;5.28;;;;;;;16.61;80.88;98366.97;5051222;28;20098;-73
2023/10/21 00:39:16;;;;;;;16.05;5.25;;;;;;;16.81;80.16;98368.59;5051953;28;20402;-74
2023/10/21 00:41:51;;;;;;;12.63;5.35;;;;;;;16.86;80.03;98368.34;5051072;28;21030;-74
2023/10/21 00:44:16;;;;;;;14.32;4.80;;;;;;;16.81;80.09;98389.63;5051351;28;20040;-74
2023/10/21 00:46:42;;;;;;;17.58;5.43;;;;;;;16.84;80.36;98383.34;5049383;28;20459;-74
2023/10/21 00:49:08;;;;;;;13.60;5.13;;;;;;;16.89;80.00;98390.09;5051330;28;20044;-73
2023/10/21 00:51:35;;;;;;;16.35;5.38;;;;;;;16.82;80.16;98390.50;5049291;28;20045;-74
2023/10/21 00:54:01;;;;;;;13.90;5.10;;;;;;;16.91;80.05;98387.38;5055086;28;20063;-75
2023/10/21 00:56:26;;;;;;;13.40;5.15;;;;;;;16.92;79.88;98399.59;5058554;28;20103;-74
2023/10/21 00:58:54;;;;;;;13.13;4.88;;;;;;;16.93;79.81;98403.94;5056654;28;20432;-74
2023/10/21 01:01:22;;;;;;;16.73;5.40;;;;;;;16.92;79.91;98399.59;5051419;28;20040;-75
2023/10/21 01:03:51;;;;;;;13.30;5.30;;;;;;;16.91;80.02;98408.44;5050762;28;20032;-75
2023/10/21 01:06:17;;;;;;;16.08;5.28;;;;;;;16.91;79.98;98408.44;5050892;28;20037;-75
2023/10/21 01:08:43;;;;;;;12.77;4.85;;;;;;;16.96;79.87;98404.63;5050475;28;20079;-74
2023/10/21 01:11:12;;;;;;;13.07;4.72;;;;;;;16.97;79.81;98408.09;5050656;28;20044;-75
2023/10/21 01:13:43;;;;;;;12.52;4.90;;;;;;;16.96;79.74;98399.34;5052021;28;20037;-75
2023/10/21 01:16:08;;;;;;;13.30;5.00;;;;;;;16.95;79.77;98413.47;5052301;28;20044;-74
2023/10/21 01:18:34;;;;;;;10.25;4.32;;;;;;;16.98;79.58;98410.66;5051601;28;20119;-74
2023/10/21 01:21:03;;;;;;;12.57;4.40;;;;;;;16.97;79.42;98416.84;5049083;28;20029;-74
2023/10/21 01:23:40;;;;;;;11.85;4.82;;;;;;;16.92;79.74;98420.66;5050402;28;20114;-74
2023/10/21 01:26:06;;;;;;;13.80;4.68;;;;;;;16.89;79.60;98424.31;5049190;28;20029;-74
2023/10/21 01:28:32;;;;;;;9.90;4.72;;;;;;;16.88;79.68;98424.38;5050077;28;20063;-75
2023/10/21 01:30:58;;;;;;;10.18;4.40;;;;;;;16.87;80.11;98428.78;5050458;28;20033;-73
2023/10/21 01:33:23;;;;;;;13.40;4.40;;;;;;;16.92;80.00;98439.09;5039302;28;20033;-74
2023/10/21 01:35:49;;;;;;;15.20;4.70;;;;;;;16.93;79.66;98433.75;5050365;28;20040;-73
2023/10/21 01:38:24;;;;;;;12.98;4.80;;;;;;;16.94;79.80;98434.59;5049005;28;20060;-75
2023/10/21 01:40:49;;;;;;;14.80;4.93;;;;;;;16.86;79.73;98440.25;5049532;28;20394;-74
2023/10/21 01:43:15;;;;;;;12.18;4.72;;;;;;;16.88;79.71;98441.03;5050568;28;20039;-74
2023/10/21 01:45:40;;;;;;;11.50;5.00;;;;;;;16.89;79.53;98437.47;5048066;28;20037;-74
2023/10/21 01:48:09;;;;;;;12.35;4.72;;;;;;;16.88;79.52;98440.19;5050321;28;20037;-74
2023/10/21 01:50:34;;;;;;;12.55;5.25;;;;;;;16.86;79.43;98448.13;5050067;28;20086;-74
2023/10/21 01:53:00;;;;;;;10.95;4.95;;;;;;;16.86;79.32;98442.03;5049891;28;20032;-74
2023/10/21 01:55:25;;;;;;;16.45;5.38;;;;;;;16.78;79.20;98436.28;5049760;28;20041;-75
2023/10/21 01:57:50;;;;;;;9.45;5.00;;;;;;;16.79;79.36;98446.75;5049873;28;20119;-75
2023/10/21 02:00:18;;;;;;;14.02;5.10;;;;;;;16.72;79.07;98441.84;5050090;28;20076;-74
2023/10/21 02:02:57;;;;;;;13.82;4.95;;;;;;;16.74;79.27;98454.03;5049492;28;20767;-74
2023/10/21 02:05:25;;;;;;;11.45;5.00;;;;;;;16.73;79.36;98451.47;5048286;28;20033;-75
2023/10/21 02:07:54;;;;;;;12.50;5.35;;;;;;;16.74;79.26;98459.28;5050377;28;20040;-75
2023/10/21 02:10:21;;;;;;;11.82;5.18;;;;;;;16.49;79.95;98470.13;5048345;28;20037;-75
2023/10/21 02:12:46;;;;;;;15.10;5.50;;;;;;;16.49;80.41;98467.50;5049823;28;20112;-74
2023/10/21 02:15:14;;;;;;;14.73;5.80;;;;;;;16.70;80.23;98477.94;5051212;28;20056;-74
2023/10/21 02:17:42;;;;;;;13.38;5.40;;;;;;;16.82;79.62;98475.56;5051815;28;20037;-74
2023/10/21 02:20:09;;;;;;;15.30;5.65;;;;;;;16.76;80.15;98480.25;5054740;28;20047;-74
2023/10/21 02:22:38;;;;;;;15.18;6.03;;;;;;;16.84;79.74;98480.72;5051976;28;20033;-74
2023/10/21 02:25:03;;;;;;;14.90;6.30;;;;;;;16.74;79.94;98497.91;5054344;28;20498;-74
2023/10/21 02:27:29;;;;;;;14.02;6.07;;;;;;;16.80;80.27;98489.69;5051927;28;20174;-74
2023/10/21 02:29:54;;;;;;;14.80;5.95;;;;;;;16.64;80.93;98497.50;5052604;28;20394;-74
2023/10/21 02:32:22;;;;;;;16.48;6.20;;;;;;;16.65;80.89;98503.63;5053747;28;20060;-74
2023/10/21 02:34:47;;;;;;;18.10;6.65;;;;;;;16.71;80.47;98509.41;5053240;28;20029;-74
2023/10/21 02:37:13;;;;;;;19.35;6.38;;;;;;;16.88;80.00;98501.56;5052849;28;20048;-74
2023/10/21 02:39:41;;;;;;;12.73;5.72;;;;;;;16.65;80.79;98509.72;5053436;28;20068;-74
2023/10/21 02:42:06;;;;;;;18.70;6.30;;;;;;;16.88;80.41;98504.19;5054062;28;20048;-74
2023/10/21 02:44:41;;;;;;;13.85;5.65;;;;;;;16.92;80.07;98496.97;5051344;28;20049;-74
2023/10/21 02:47:06;;;;;;;15.40;5.93;;;;;;;16.86;80.26;98505.19;5053463;28;20094;-74
2023/10/21 02:49:34;;;;;;;14.85;6.00;;;;;;;16.81;80.65;98502.78;5051981;28;20036;-73
2023/10/21 02:52:03;;;;;;;18.70;6.05;;;;;;;16.84;80.53;98504.41;5053868;28;20202;-74
2023/10/21 02:54:28;;;;;;;14.63;6.00;;;;;;;16.83;80.78;98518.50;5053438;28;20033;-74
2023/10/21 02:56:56;;;;;;;14.98;5.68;;;;;;;16.95;80.02;98510.84;5054021;28;20044;-74
2023/10/21 02:59:22;;;;;;;15.25;5.47;;;;;;;16.85;79.80;98514.00;5055279;28;20052;-74
2023/10/21 03:01:48;;;;;;;12.90;5.63;;;;;;;16.90;80.01;98517.25;5056490;28;20033;-74
2023/10/21 03:04:16;;;;;;;13.73;5.68;;;;;;;16.87;79.92;98530.56;5059909;28;20124;-74
2023/10/21 03:06:51;;;;;;;12.48;5.25;;;;;;;16.70;80.31;98531.41;5054081;28;20048;-74
2023/10/21 03:09:16;;;;;;;14.32;5.65;;;;;;;16.82;79.52;98532.59;5053220;28;20041;-74
2023/10/21 03:11:48;;;;;;;14.70;5.70;;;;;;;16.79;79.45;98537.97;5053380;28;20056;-74
2023/10/21 03:14:13;;;;;;;12.02;5.30;;;;;;;16.79;79.18;98536.22;5053528;28;20033;-73
2023/10/21 03:16:38;;;;;;;11.27;5.30;;;;;;;16.73;79.55;98541.78;5052381;28;20141;-74
2023/10/21 03:19:04;;;;;;;13.32;5.43;;;;;;;16.56;80.32;98539.94;5054022;28;20048;-75
2023/10/21 03:21:35;;;;;;;14.50;5.13;;;;;;;16.72;79.39;98549.72;5052979;28;20044;-75
2023/10/21 03:24:00;;;;;;;13.77;4.85;;;;;;;16.70;79.22;98546.34;5053679;28;20044;-74
2023/10/21 03:26:28;;;;;;;11.13;4.75;;;;;;;16.66;79.21;98552.66;5052092;28;20021;-74
2023/10/21 03:28:54;;;;;;;11.80;5.18;;;;;;;16.60;79.46;98552.03;5054100;28;20124;-74
2023/10/21 03:31:19;;;;;;;15.38;5.30;;;;;;;16.57;80.17;98565.31;5052273;28;20060;-74
2023/10/21 03:33:45;;;;;;;13.45;5.13;;;;;;;16.59;79.65;98560.84;5057174;28;20110;-73
2023/10/21 03:36:10;;;;;;;12.40;4.88;;;;;;;16.65;79.34;98558.88;5059845;28;20036;-73
2023/10/21 03:38:36;;;;;;;11.75;4.53;;;;;;;16.61;78.93;98561.63;5058682;28;20096;-74
2023/10/21 03:43:29;;;;;;;14.55;5.10;;;;;;;16.56;79.54;98573.28;4989553;28;20046;-46
2023/10/21 03:45:55;;;;;;;12.30;4.80;;;;;;;16.55;80.10;98575.03;4992769;28;20026;-44
2023/10/21 03:48:21;;;;;;;12.43;4.78;;;;;;;16.50;79.76;98574.41;4992346;28;20086;-46
2023/10/21 03:50:47;;;;;;;13.13;4.72;;;;;;;16.56;79.81;98573.28;4992822;28;20053;-46
2023/10/21 03:53:14;;;;;;;10.85;4.60;;;;;;;16.58;79.46;98577.53;4992284;28;20062;-45
2023/10/21 03:55:41;;;;;;;14.32;4.95;;;;;;;16.56;79.06;98579.38;4991987;28;20408;-48
2023/10/21 03:58:07;;;;;;;10.95;4.70;;;;;;;16.49;79.33;98582.38;4992237;28;20130;-48
2023/10/21 04:00:32;;;;;;;10.63;4.60;;;;;;;16.49;79.38;98592.88;4991806;28;20495;-49
2023/10/21 04:02:57;;;;;;;13.77;5.00;;;;;;;16.43;79.38;98588.78;4992297;28;20038;-49
2023/10/21 04:05:23;;;;;;;11.73;4.57;;;;;;;16.46;78.97;98595.69;4990348;28;20038;-48
2023/10/21 04:07:48;;;;;;;11.02;4.82;;;;;;;16.39;79.00;98597.75;4992331;28;20035;-48
2023/10/21 04:10:14;;;;;;;13.25;4.70;;;;;;;16.34;79.58;98599.72;4992244;28;20030;-45
2023/10/21 04:12:39;;;;;;;10.57;4.57;;;;;;;16.20;79.47;98596.88;4991977;28;20034;-48
2023/10/21 04:15:08;;;;;;;10.07;4.80;;;;;;;16.27;79.42;98598.31;4993389;28;20068;-46
2023/10/21 04:17:33;;;;;;;10.27;4.55;;;;;;;16.34;79.14;98604.13;4991903;28;20043;-50
2023/10/21 04:19:59;;;;;;;12.73;4.63;;;;;;;16.29;79.08;98606.09;4992031;28;20050;-46
2023/10/21 04:22:24;;;;;;;13.50;4.57;;;;;;;16.27;79.32;98611.44;4991627;28;20045;-46
2023/10/21 04:24:49;;;;;;;11.63;4.50;;;;;;;16.19;80.18;98617.03;4991833;28;20493;-51
2023/10/21 04:27:15;;;;;;;10.02;4.28;;;;;;;16.26;79.62;98616.75;4991995;28;20045;-47
2023/10/21 04:29:40;;;;;;;10.27;4.13;;;;;;;16.29;78.87;98622.72;4991844;28;21411;-47
2023/10/21 04:32:05;;;;;;;10.30;4.32;;;;;;;16.20;80.57;98637.16;4991641;28;20125;-46
2023/10/21 04:34:30;;;;;;;10.88;4.22;;;;;;;16.29;80.06;98642.91;4990861;28;20037;-48
2023/10/21 04:36:56;;;;;;;15.32;4.03;;;;;;;16.17;81.43;98646.94;4991736;28;20046;-52
2023/10/21 04:39:21;;;;;;;12.02;4.07;;;;;;;16.15;82.15;98647.03;4990647;28;20033;-45
2023/10/21 04:41:49;;;;;;;10.73;3.90;;;;;;;16.42;80.82;98663.31;4991337;28;20415;-47
2023/10/21 04:44:15;;;;;;;10.40;3.95;;;;;;;16.55;80.87;98655.72;4991528;28;20038;-47
2023/10/21 04:46:40;;;;;;;11.57;3.80;;;;;;;16.53;81.74;98657.56;4990944;28;20049;-46
2023/10/21 04:49:05;;;;;;;12.25;4.38;;;;;;;16.50;81.94;98660.34;4991436;28;20515;-46
2023/10/21 04:51:31;;;;;;;10.45;4.10;;;;;;;16.53;81.65;98658.41;4990975;28;20038;-49
2023/10/21 04:53:57;;;;;;;11.48;4.63;;;;;;;16.68;81.87;98661.31;4991009;28;20046;-47
2023/10/21 04:56:24;;;;;;;12.18;4.68;;;;;;;16.76;81.34;98672.34;4990546;28;20065;-44
2023/10/21 04:58:49;;;;;;;15.13;4.55;;;;;;;16.69;82.19;98684.06;4991207;28;20548;-47
2023/10/21 05:01:16;;;;;;;12.65;4.40;;;;;;;16.93;81.10;98678.53;4991146;28;20038;-51
2023/10/21 05:03:43;;;;;;;10.98;4.35;;;;;;;16.85;81.02;98683.28;4990595;28;20041;-52
2023/10/21 05:06:08;;;;;;;14.75;4.88;;;;;;;16.77;82.16;98690.66;4990981;28;20034;-46
2023/10/21 05:08:33;;;;;;;10.82;4.40;;;;;;;16.88;81.39;98698.09;4989147;28;20038;-50
2023/10/21 05:10:59;;;;;;;13.88;4.30;;;;;;;16.77;82.02;98705.63;4990966;28;20574;-45
2023/10/21 05:13:24;;;;;;;10.75;4.20;;;;;;;16.77;81.67;98697.75;4990403;28;20088;-46
2023/10/21 05:15:50;;;;;;;10.18;4.00;;;;;;;17.03;81.25;98706.09;4990977;28;20125;-46
2023/10/21 05:18:16;;;;;;;10.05;4.10;;;;;;;17.00;80.81;98710.69;4990747;28;20050;-44
2023/10/21 05:20:41;;;;;;;11.15;4.00;;;;;;;16.99;80.89;98715.09;4990719;28;20409;-46
2023/10/21 05:23:07;;;;;;;7.88;3.70;;;;;;;17.10;80.10;98709.31;4990944;28;20038;-47
2023/10/21 05:25:33;;;;;;;9.50;3.88;;;;;;;17.11;80.49;98705.75;4990163;28;20177;-46
2023/10/21 05:27:58;;;;;;;10.80;3.78;;;;;;;16.95;81.20;98715.31;4990657;28;20563;-51
2023/10/21 05:30:24;;;;;;;9.82;3.70;;;;;;;17.28;80.12;98718.97;4990546;28;20053;-45
2023/10/21 05:32:49;;;;;;;6.38;3.25;;;;;;;17.25;79.87;98716.50;4990663;28;20034;-44
2023/10/21 05:35:15;;;;;;;6.95;3.53;;;;;;;17.22;80.14;98729.78;4990330;28;20038;-46
2023/10/21 05:37:40;;;;;;;9.85;3.67;;;;;;;17.26;79.75;98725.25;4990141;28;20042;-45
2023/10/21 05:40:06;;;;;;;11.38;3.83;;;;;;;17.22;79.52;98723.66;4990716;28;20035;-47
2023/10/21 05:42:32;;;;;;;11.50;3.80;;;;;;;17.22;79.36;98732.41;4989771;28;20589;-47
2023/10/21 05:44:59;;;;;;;7.50;3.40;;;;;;;17.31;79.26;98737.25;4990259;28;20034;-47
2023/10/21 05:47:24;;;;;;;8.40;3.60;;;;;;;17.22;79.09;98737.69;4990148;28;20034;-46
2023/10/21 05:49:49;;;;;;;6.75;3.53;;;;;;;17.35;79.14;98737.97;4990121;28;20405;-48
2023/10/21 05:52:15;;;;;;;6.20;3.30;;;;;;;17.35;79.26;98746.72;4990484;28;20197;-47
2023/10/21 05:54:40;;;;;;;6.50;3.50;;;;;;;17.24;79.51;98745.53;4989817;28;20069;-47
2023/10/21 05:57:06;;;;;;;6.72;3.47;;;;;;;17.16;78.84;98747.66;4990294;28;20129;-48
2023/10/21 05:59:31;;;;;;;11.18;3.50;;;;;;;16.97;79.72;98763.44;4989878;28;20037;-43
2023/10/21 06:01:56;;;;;;;9.73;3.20;;;;;;;17.29;79.47;98751.41;4989104;28;20042;-50
2023/10/21 06:04:22;;;;;;;9.70;3.40;;;;;;;17.30;78.93;98766.28;4990129;28;20133;-51
2023/10/21 06:06:49;;;;;;;7.97;3.50;;;;;;;17.08;80.04;98770.88;4990663;28;20042;-46
2023/10/21 06:09:15;;;;;;;8.38;3.35;;;;;;;17.35;79.01;98780.97;4990269;28;20061;-47
2023/10/21 06:11:40;;;;;;;7.65;3.33;;;;;;;17.39;78.95;98786.91;4989842;28;20465;-51
2023/10/21 06:14:06;;;;;;;9.13;3.40;;;;;;;17.39;78.66;98785.13;4990389;28;20038;-45
2023/10/21 06:16:31;;;;;;;8.98;3.50;;;;;;;17.15;79.93;98791.56;4992320;28;20033;-49
2023/10/21 06:18:57;;;;;;;9.95;3.83;;;;;;;17.37;79.43;98796.69;4993202;28;20046;-48
2023/10/21 06:21:22;;;;;;;8.13;3.88;;;;;;;17.38;79.27;98799.22;4990223;28;20038;-47
2023/10/21 06:23:47;;;;;;;8.15;3.65;;;;;;;17.38;79.31;98799.22;4990196;28;20034;-47
2023/10/21 06:26:13;;;;;;;9.77;3.75;;;;;;;17.50;78.68;98810.13;4990290;28;20038;-50
2023/10/21 06:28:38;;;;;;;9.88;3.95;;;;;;;17.55;78.59;98808.13;4989932;28;20697;-45
2023/10/21 06:31:04;;;;;;;9.13;4.00;;;;;;;17.43;78.51;98806.94;4990474;28;20412;-46
2023/10/21 06:33:30;;;;;;;9.65;3.90;;;;;;;17.35;79.24;98809.94;4992232;28;20606;-48
2023/10/21 06:35:55;;;;;;;10.18;4.10;;;;;;;17.36;79.38;98811.63;4995355;28;20117;-51
2023/10/21 06:38:20;;;;;;;12.40;4.18;;;;;;;17.42;79.14;98818.41;4993870;28;20042;-47
2023/10/21 06:40:46;;;;;;;10.30;3.80;;;;;;;17.46;79.04;98819.94;4991094;28;20032;-44
2023/10/21 06:43:12;;;;;;;7.43;3.70;;;;;;;17.50;79.20;98826.81;4990750;28;20050;-47
2023/10/21 06:45:38;;;;;;;7.30;4.00;;;;;;;17.51;78.94;98830.25;4989489;28;20497;-45
2023/10/21 06:48:04;;;;;;;7.95;3.83;;;;;;;17.35;79.62;98836.25;4990074;28;20031;-49
2023/10/21 06:50:31;;;;;;;7.30;3.70;;;;;;;17.26;80.57;98843.75;4989742;28;20129;-45
2023/10/21 06:52:56;;;;;;;9.45;4.13;;;;;;;17.22;79.76;98857.97;4989929;28;20026;-49
2023/10/21 06:55:22;;;;;;;9.95;4.40;;;;;;;17.24;80.98;98859.63;4990302;28;20066;-46
2023/10/21 06:57:47;;;;;;;10.00;4.00;;;;;;;17.14;81.35;98863.56;4989938;28;20027;-46
2023/10/21 07:00:13;;;;;;;7.80;3.50;;;;;;;17.14;81.18;98868.00;4991001;28;20042;-49
2023/10/21 07:02:38;;;;;;;7.82;3.50;;;;;;;17.34;80.77;98875.84;4991313;28;20436;-49
2023/10/21 07:05:09;;;;;;;9.40;3.28;;;;;;;17.31;80.64;98868.09;4994691;28;20132;-46
2023/10/21 07:07:35;;;;;;;7.63;3.42;;;;;;;17.38;80.55;98872.16;4996223;28;20750;-45
2023/10/21 07:10:01;;;;;;;7.75;3.35;;;;;;;17.59;79.51;98888.72;4998211;28;20048;-45
2023/10/21 07:12:26;;;;;;;8.38;3.30;;;;;;;17.65;78.97;98891.97;4999784;28;20038;-50
2023/10/21 07:14:52;;;;;;;7.78;3.30;;;;;;;17.67;78.29;98890.13;5013365;28;20058;-47
2023/10/21 07:17:17;;;;;;;5.40;3.20;;;;;;;17.63;78.59;98887.69;5014951;28;20046;-46
2023/10/21 07:19:42;;;;;;;5.85;3.20;;;;;;;17.79;78.37;98899.25;4997807;28;20417;-48
2023/10/21 07:22:08;;;;;;;6.18;3.42;;;;;;;17.79;78.64;98901.88;4993244;28;20133;-49
2023/10/21 07:24:33;;;;;;;6.95;3.22;;;;;;;17.72;78.92;98901.31;4992681;28;20073;-46
2023/10/21 07:26:58;;;;;;;9.25;3.03;;;;;;;17.71;78.51;98909.28;4993002;28;20100;-46
2023/10/21 07:29:24;;;;;;;5.90;3.13;;;;;;;17.90;77.95;98909.25;4993143;28;20070;-49
2023/10/21 07:31:49;;;;;;;7.65;3.50;;;;;;;17.82;77.86;98921.03;4993160;28;20118;-47
2023/10/21 07:34:14;;;;;;;9.52;3.30;;;;;;;17.84;78.04;98920.97;4993122;28;20053;-47
2023/10/21 07:36:40;;;;;;;7.57;3.40;;;;;;;17.88;78.20;98927.78;4992549;28;20038;-47
2023/10/21 07:39:05;;;;;;;6.03;3.38;;;;;;;17.95;77.78;98925.72;4993421;28;20034;-48
2023/10/21 07:41:32;;;;;;;6.55;3.05;;;;;;;17.88;78.42;98925.16;4992660;28;20065;-48
2023/10/21 07:43:57;;;;;;;8.43;3.08;;;;;;;17.87;77.81;98931.34;4993219;28;20092;-47
2023/10/21 07:46:23;;;;;;;6.25;3.05;;;;;;;17.86;77.80;98926.16;4992390;28;20034;-47
2023/10/21 07:48:48;;;;;;;4.05;2.60;;;;;;;17.82;77.31;98928.06;4992924;28;20057;-45
2023/10/21 07:51:13;;;;;;;10.55;5.10;;;;;;;17.92;77.56;98941.69;4992512;28;20491;-46
2023/10/21 07:53:40;;;;;;;6.25;2.50;;;;;;;17.98;77.00;98942.25;4992031;28;20062;-47
2023/10/21 07:56:05;;;;;;;4.72;2.22;;;;;;;17.99;76.52;98954.50;4992540;28;20030;-50
2023/10/21 07:58:31;;;;;;;5.13;2.45;;;;;;;17.76;77.16;98952.94;4992089;28;20048;-48
2023/10/21 08:00:57;;;;;;;6.03;2.30;;;;;;;17.74;76.90;98956.59;4992624;28;20606;-47
2023/10/21 08:03:22;;;;;;;5.70;2.63;;;;;;;17.70;77.02;98970.81;4992055;28;20042;-47
2023/10/21 08:05:47;;;;;;;4.18;2.35;;;;;;;17.47;78.11;98968.34;4992605;28;20084;-47
2023/10/21 08:08:13;;;;;;;3.47;2.30;;;;;;;17.71;77.52;98964.63;4992637;28;20034;-50
2023/10/21 08:10:38;;;;;;;4.50;2.47;;;;;;;17.48;78.29;98970.06;4992469;28;20497;-47
2023/10/21 08:13:03;;;;;;;4.35;2.42;;;;;;;17.58;78.52;98981.88;4992280;28;20524;-49
2023/10/21 08:15:29;;;;;;;4.63;2.60;;;;;;;17.64;78.28;98984.28;4992177;28;20130;-45
2023/10/21 08:17:55;;;;;;;6.72;2.47;;;;;;;17.59;78.17;98992.34;4992661;28;20449;-44
2023/10/21 08:20:21;;;;;;;5.40;2.35;;;;;;;17.74;78.23;98996.97;4992378;28;20045;-50
2023/10/21 08:22:46;;;;;;;6.40;2.50;;;;;;;17.69;78.39;99008.63;4992005;28;20022;-47
2023/10/21 08:25:12;;;;;;;5.38;2.47;;;;;;;17.63;78.52;99015.03;4992074;28;20070;-50
2023/10/21 08:27:37;;;;;;;4.40;2.20;;;;;;;17.21;79.71;99025.63;4991611;28;20041;-49
2023/10/21 08:30:09;;;;;;;3.80;2.15;;;;;;;17.47;78.47;99018.38;4991679;28;20030;-49
2023/10/21 08:32:35;;;;;;;3.30;1.98;;;;;;;17.69;77.98;99020.03;4990908;28;20042;-52
2023/10/21 08:35:00;;;;;;;3.95;1.70;;;;;;;17.58;78.12;99024.91;4991928;28;20042;-46
2023/10/21 08:37:25;;;;;;;2.45;1.40;;;;;;;17.69;77.51;99033.22;4990334;28;20420;-45
2023/10/21 08:39:50;;;;;;;4.70;1.35;;;;;;;17.49;75.86;99033.22;4990684;28;20037;-48
2023/10/21 08:42:17;;;;;;;2.70;1.23;;;;;;;17.45;75.00;99042.16;4992476;28;20049;-46
2023/10/21 08:44:45;;;;;;;3.10;1.27;;;;;;;17.13;74.28;99038.31;4991733;28;20066;-46
2023/10/21 08:47:11;;;;;;;3.10;1.20;;;;;;;16.92;75.43;99039.19;4992420;28;20030;-46
2023/10/21 08:49:37;;;;;;;1.95;0.90;;;;;;;17.47;73.93;99055.28;4991925;28;20121;-46
2023/10/21 08:52:04;;;;;;;2.88;1.10;;;;;;;17.41;73.67;99059.88;4992504;28;20034;-47
2023/10/21 08:54:31;;;;;;;2.75;0.90;;;;;;;17.43;72.99;99052.78;4992853;28;20113;-45
2023/10/21 08:56:56;;;;;;;1.60;1.00;;;;;;;17.52;72.36;99056.78;4994428;28;20046;-47
2023/10/21 08:59:22;;;;;;;2.35;1.00;;;;;;;17.65;72.03;99060.63;4993063;28;20093;-47
2023/10/21 09:01:47;;;;;;;2.03;0.93;;;;;;;17.43;71.33;99063.31;4992661;28;20740;-50
2023/10/21 09:04:16;;;;;;;3.45;1.10;;;;;;;17.40;72.53;99070.47;4990833;28;20066;-47
2023/10/21 09:06:59;;;;;;;2.38;1.20;;;;;;;17.22;71.67;99072.13;4991842;28;20575;-47
2023/10/21 09:09:28;;;;;;;1.70;1.00;;;;;;;17.22;72.13;99084.44;4991871;28;20038;-48
2023/10/21 09:12:13;;;;;;;2.70;1.05;;;;;;;17.36;70.14;99090.00;4992153;28;20414;-44
2023/10/21 09:14:56;;;;;;;2.40;1.30;;;;;;;17.53;70.21;99084.84;4991295;28;20055;-45
2023/10/21 09:17:33;;;;;;;1.45;1.00;;;;;;;17.70;69.05;99100.81;4992254;28;20042;-46
2023/10/21 09:19:58;;;;;;;1.80;1.00;;;;;;;17.65;67.69;99108.06;5011246;28;20077;-50
2023/10/21 09:22:27;;;;;;;2.72;1.10;;;;;;;17.62;68.33;99102.09;5011109;28;20138;-45
2023/10/21 09:25:15;;;;;;;1.95;1.10;;;;;;;17.96;67.54;99114.63;5009958;28;20034;-49
2023/10/21 09:27:42;;;;;;;1.67;1.10;;;;;;;17.86;67.47;99106.28;5016714;28;20045;-47
2023/10/21 09:30:13;;;;;;;2.78;1.30;;;;;;;18.02;66.99;99117.00;5016078;28;20030;-50
2023/10/21 09:32:38;;;;;;;3.63;1.30;;;;;;;17.75;67.42;99117.28;5016400;28;20515;-48
2023/10/21 09:35:13;;;;;;;5.63;1.30;;;;;;;17.24;66.75;99112.44;5012208;28;20038;-45
2023/10/21 09:37:38;;;;;;;2.22;1.10;;;;;;;17.68;67.39;99131.66;5010615;28;20050;-48
2023/10/21 09:40:06;;;;;;;2.38;1.00;;;;;;;17.89;65.57;99131.63;5011641;28;20128;-50
2023/10/21 09:42:36;;;;;;;1.85;1.08;;;;;;;18.11;65.06;99141.16;5009596;28;20396;-50
2023/10/21 09:45:03;;;;;;;3.55;1.10;;;;;;;18.39;64.38;99134.66;5011158;28;20111;-50
2023/10/21 09:47:29;;;;;;;2.13;0.90;;;;;;;18.52;63.81;99135.78;5011149;28;20072;-46
2023/10/21 09:49:56;;;;;;;2.95;1.10;;;;;;;18.70;62.69;99142.88;5011455;28;20030;-44
2023/10/21 09:52:31;;;;;;;4.60;1.00;;;;;;;18.24;64.68;99131.78;5010863;28;20076;-49
2023/10/21 09:55:07;;;;;;;2.30;1.00;;;;;;;18.23;64.07;99139.78;5010952;28;20036;-50
2023/10/21 09:57:36;;;;;;;4.32;1.00;;;;;;;18.54;62.67;99124.22;5010352;28;20042;-49
2023/10/21 10:00:03;;;;;;;2.63;0.90;;;;;;;18.40;62.72;99147.78;5010944;28;20034;-44
2023/10/21 10:02:30;;;;;;;2.83;1.00;;;;;;;18.54;61.32;99160.34;5010138;28;20061;-48
2023/10/21 10:04:57;;;;;;;4.97;0.90;;;;;;;18.51;60.68;99145.50;5010449;28;20447;-47
2023/10/21 10:07:23;;;;;;;2.58;0.80;;;;;;;18.46;61.58;99157.19;5010260;28;20121;-49
2023/10/21 10:09:49;;;;;;;5.95;1.00;;;;;;;18.66;61.09;99156.31;5010056;28;20122;-47
2023/10/21 10:12:23;;;;;;;4.13;1.00;;;;;;;18.60;60.93;99163.56;5011209;28;20037;-46
2023/10/21 10:14:48;;;;;;;;;;;;;;;18.78;59.69;99168.94;5015000;28;20400;-47
2023/10/21 10:17:47;;;;;;;3.53;1.00;;;;;;;18.77;60.07;99190.97;5024373;28;19921;-50
2023/10/21 10:20:24;;;;;;;4.70;1.00;;;;;;;18.49;58.92;99162.31;5020058;28;20041;-44
2023/10/21 10:23:07;;;;;;;4.60;0.90;;;;;;;18.93;58.19;99176.97;5011116;28;20124;-46
2023/10/21 10:25:34;;;;;;;3.15;0.90;;;;;;;18.96;58.87;99171.56;5009583;28;20396;-46
2023/10/21 10:28:04;;;;;;;4.55;1.02;;;;;;;18.25;59.10;99169.56;5010054;28;20072;-55
2023/10/21 10:30:31;;;;;;;3.30;0.80;;;;;;;18.17;61.04;99177.84;5009599;28;20034;-47
2023/10/21 10:32:57;;;;;;;2.55;0.90;;;;;;;18.47;59.00;99178.25;5009949;28;20500;-49
2023/10/21 10:35:30;;;;;;;3.55;0.90;;;;;;;18.94;58.00;99191.88;5009696;28;20492;-46
2023/10/21 10:37:56;;;;;;;7.77;1.17;;;;;;;18.95;58.57;99185.69;5012860;28;20026;-50
2023/10/21 10:40:34;;;;;;;3.08;0.85;;;;;;;19.21;57.98;99186.22;5014202;28;20120;-45
2023/10/21 10:42:59;;;;;;;2.60;0.80;;;;;;;19.07;57.78;99192.16;5014146;28;20049;-47
2023/10/21 10:45:25;;;;;;;2.72;0.80;;;;;;;18.74;58.70;99199.88;5012765;28;20113;-51
2023/10/21 10:48:02;;;;;;;6.65;0.85;;;;;;;18.72;57.97;99199.13;5013576;28;20050;-50
2023/10/21 10:50:27;;;;;;;2.25;0.80;;;;;;;19.17;57.56;99190.78;5012940;28;20038;-49
2023/10/21 10:52:55;;;;;;;3.30;0.98;;;;;;;18.87;56.88;99190.47;5013184;28;20030;-47
2023/10/21 10:55:22;;;;;;;3.13;0.77;;;;;;;18.87;56.83;99193.09;5013151;28;20026;-51
2023/10/21 10:57:48;;;;;;;5.30;0.90;;;;;;;18.84;56.59;99195.91;5012844;28;20046;-48
2023/10/21 11:00:20;;;;;;;7.82;1.10;;;;;;;18.52;56.75;99189.44;5013278;28;20185;-44
2023/10/21 11:02:46;;;;;;;3.45;0.95;;;;;;;18.34;57.95;99199.97;5012496;28;20038;-48
2023/10/21 11:05:17;;;;;;;3.80;0.90;;;;;;;18.47;57.07;99194.06;5013129;28;20536;-46
2023/10/21 11:07:42;;;;;;;5.07;0.98;;;;;;;18.03;58.01;99205.72;5012784;28;20043;-45
2023/10/21 11:10:08;;;;;;;2.63;0.98;;;;;;;18.22;57.30;99206.63;5012059;28;20095;-46
2023/10/21 11:12:33;;;;;;;4.93;1.17;;;;;;;18.50;57.51;99208.88;5012922;28;20045;-52
2023/10/21 11:15:01;;;;;;;3.53;1.00;;;;;;;18.55;56.65;99217.47;5013940;28;20519;-45
2023/10/21 11:17:26;;;;;;;7.35;1.00;;;;;;;18.19;57.42;99218.16;5013772;28;20041;-47
2023/10/21 11:19:52;;;;;;;6.95;1.10;;;;;;;18.91;56.32;99210.50;5014113;28;20401;-52
2023/10/21 11:22:26;;;;;;;3.92;1.10;;;;;;;18.76;55.83;99207.75;5013388;28;20045;-47
2023/10/21 11:24:53;;;;;;;4.10;1.00;;;;;;;19.03;55.63;99214.34;5012215;28;20493;-51
2023/10/21 11:27:18;;;;;;;5.82;1.20;;;;;;;19.31;54.98;99219.19;5012508;28;20030;-52
2023/10/21 11:29:45;;;;;;;4.70;1.60;;;;;;;19.16;54.66;99211.97;5012218;28;20048;-50
2023/10/21 11:32:14;;;;;;;4.95;1.00;;;;;;;19.32;54.89;99210.34;5012467;28;20446;-53